Time;durP1;ratioP1;P1;durP2;ratioP2;P2;SDS_P1;SDS_P2;PMS_P1;PMS_P2;Temp;Humidity;BMP_temperature;BMP_pressure;BME280_temperature;BME280_humidity;BME280_pressure;Samples;Min_cycle;Max_cycle;Signal;HPM_P1;HPM_P2
2021/12/19 00:08:27;;;;;;;10.25;1.38;;;7.60;99.90;;;;;;6179156;23;20028;-86
2021/12/19 00:10:32;;;;;;;6.13;1.17;;;7.50;99.90;;;;;;6122226;23;20116;-86
2021/12/19 00:12:59;;;;;;;18.80;2.35;;;7.50;99.90;;;;;;6097429;23;20022;-86
2021/12/19 00:15:25;;;;;;;6.03;0.80;;;7.50;99.90;;;;;;6072919;23;20022;-86
2021/12/19 00:17:51;;;;;;;4.97;1.08;;;7.50;99.90;;;;;;6122356;23;20030;-86
2021/12/19 00:20:19;;;;;;;8.65;0.90;;;7.50;99.90;;;;;;6096997;23;20030;-86
2021/12/19 00:22:45;;;;;;;6.38;1.33;;;7.40;99.90;;;;;;6125804;23;20014;-87
2021/12/19 00:25:11;;;;;;;7.47;1.08;;;7.40;99.90;;;;;;6104420;23;20030;-86
2021/12/19 00:27:36;;;;;;;8.43;1.52;;;7.40;99.90;;;;;;6105540;23;20017;-85
2021/12/19 00:30:04;;;;;;;11.68;1.25;;;7.40;99.90;;;;;;6099626;23;20029;-85
2021/12/19 00:32:30;;;;;;;8.20;1.27;;;7.40;99.90;;;;;;6098079;23;20105;-86
2021/12/19 00:34:55;;;;;;;8.57;1.42;;;7.40;99.90;;;;;;6096438;23;20053;-86
2021/12/19 00:37:22;;;;;;;9.93;1.02;;;7.40;99.90;;;;;;6121943;23;20026;-85
2021/12/19 00:39:50;;;;;;;3.97;0.80;;;7.40;99.90;;;;;;6095555;23;20042;-85
2021/12/19 00:42:34;;;;;;;4.53;0.57;;;7.40;99.90;;;;;;6205832;23;20024;-85
2021/12/19 00:45:16;;;;;;;7.40;0.82;;;7.30;99.90;;;;;;6187039;23;20036;-86
2021/12/19 00:47:44;;;;;;;5.57;1.23;;;7.30;99.90;;;;;;6187328;23;20016;-85
2021/12/19 00:50:12;;;;;;;6.95;1.48;;;7.40;99.90;;;;;;6186845;23;20270;-86
2021/12/19 00:52:38;;;;;;;6.25;0.90;;;7.40;99.90;;;;;;6161110;23;20024;-87
2021/12/19 00:55:04;;;;;;;8.82;1.88;;;7.40;99.90;;;;;;6162668;23;20411;-87
2021/12/19 00:57:30;;;;;;;12.93;2.78;;;7.40;99.90;;;;;;6187515;23;20079;-87
2021/12/19 00:59:57;;;;;;;6.00;0.80;;;7.40;99.90;;;;;;6186638;23;20380;-86
2021/12/19 01:02:23;;;;;;;10.18;2.35;;;7.40;99.90;;;;;;6186972;23;20095;-85
2021/12/19 01:04:49;;;;;;;8.77;1.02;;;7.40;99.90;;;;;;6186632;23;20025;-86
2021/12/19 01:07:23;;;;;;;11.05;1.33;;;7.40;99.90;;;;;;6186641;23;20013;-86
2021/12/19 01:09:49;;;;;;;7.47;1.58;;;7.40;99.90;;;;;;6188737;23;20480;-86
2021/12/19 01:12:14;;;;;;;6.38;0.98;;;7.40;99.90;;;;;;6189448;23;20028;-86
2021/12/19 01:14:40;;;;;;;6.40;1.20;;;7.40;99.90;;;;;;6189716;23;20031;-86
2021/12/19 01:17:07;;;;;;;7.70;1.23;;;7.30;99.90;;;;;;6193409;23;20024;-85
2021/12/19 01:19:34;;;;;;;5.00;0.70;;;7.30;99.90;;;;;;6169044;23;20441;-86
2021/12/19 01:22:00;;;;;;;9.32;1.15;;;7.30;99.90;;;;;;6190334;23;20036;-87
2021/12/19 01:24:26;;;;;;;5.95;0.80;;;7.30;99.90;;;;;;6164294;23;20013;-86
2021/12/19 01:26:52;;;;;;;5.75;0.80;;;7.30;99.90;;;;;;6216180;23;20349;-86
2021/12/19 01:29:17;;;;;;;4.00;0.70;;;7.20;99.90;;;;;;6213198;23;20021;-86
2021/12/19 01:31:43;;;;;;;7.18;1.27;;;7.20;99.90;;;;;;6189137;23;20032;-87
2021/12/19 01:34:12;;;;;;;4.05;0.50;;;7.20;99.90;;;;;;6189207;23;20020;-86
2021/12/19 01:36:43;;;;;;;6.07;1.13;;;7.20;99.90;;;;;;6189568;23;20020;-87
2021/12/19 01:39:10;;;;;;;2.47;0.40;;;7.20;99.90;;;;;;6188705;23;20099;-87
2021/12/19 01:41:45;;;;;;;4.47;0.60;;;7.10;99.90;;;;;;6188106;23;20105;-86
2021/12/19 01:44:10;;;;;;;;;;;7.10;99.90;;;;;;6188968;23;20040;-85
2021/12/19 01:46:36;;;;;;;5.07;0.50;;;7.10;99.90;;;;;;6187984;23;19915;-86
2021/12/19 01:49:03;;;;;;;6.65;0.90;;;7.10;99.90;;;;;;6188634;23;20130;-86
2021/12/19 01:51:29;;;;;;;10.60;0.70;;;7.10;99.90;;;;;;6188018;23;20479;-86
2021/12/19 01:53:55;;;;;;;6.90;0.90;;;7.10;99.90;;;;;;6215841;23;20020;-86
2021/12/19 01:56:21;;;;;;;9.57;0.80;;;7.10;99.90;;;;;;6188870;23;20024;-86
2021/12/19 01:58:47;;;;;;;8.73;0.88;;;7.10;99.90;;;;;;6189853;23;20047;-87
2021/12/19 02:01:16;;;;;;;6.07;1.00;;;7.10;99.90;;;;;;6195166;23;20055;-86
2021/12/19 02:03:46;;;;;;;11.60;1.88;;;7.10;99.90;;;;;;6217312;23;20095;-85
2021/12/19 02:06:17;;;;;;;4.03;0.95;;;7.10;99.90;;;;;;6188371;23;20037;-86
2021/12/19 02:08:44;;;;;;;7.38;0.70;;;7.10;99.90;;;;;;6215197;23;20029;-86
2021/12/19 02:11:10;;;;;;;4.28;0.73;;;7.00;99.90;;;;;;6162938;23;20063;-86
2021/12/19 02:13:37;;;;;;;5.10;0.88;;;7.00;99.90;;;;;;6214993;23;20025;-85
2021/12/19 02:16:04;;;;;;;6.15;0.90;;;7.00;99.90;;;;;;6189121;23;20100;-87
2021/12/19 02:18:29;;;;;;;7.95;1.55;;;7.00;99.90;;;;;;6213446;23;20028;-86
2021/12/19 02:20:59;;;;;;;15.68;2.85;;;7.00;99.90;;;;;;6211177;23;20028;-86
2021/12/19 02:23:27;;;;;;;15.63;2.03;;;7.00;99.90;;;;;;6213656;23;20021;-86
2021/12/19 02:25:54;;;;;;;14.23;1.77;;;7.00;99.90;;;;;;6188468;23;20032;-87
2021/12/19 02:28:20;;;;;;;12.52;1.25;;;7.00;99.90;;;;;;6188428;23;20020;-86
2021/12/19 02:30:47;;;;;;;8.02;0.88;;;7.00;99.90;;;;;;6215389;23;20052;-85
2021/12/19 02:33:19;;;;;;;4.53;0.82;;;7.00;99.90;;;;;;6188474;23;20027;-87
2021/12/19 02:35:53;;;;;;;4.55;1.02;;;7.00;99.90;;;;;;6163528;23;20108;-86
2021/12/19 02:49:30;;;;;;;7.13;1.25;;;7.00;99.90;;;;;;6195605;23;20021;-86
2021/12/19 02:51:56;;;;;;;8.40;1.05;;;7.00;99.90;;;;;;6194206;23;20020;-86
2021/12/19 02:54:25;;;;;;;12.20;1.83;;;7.00;99.90;;;;;;6193012;23;20527;-86
2021/12/19 02:56:51;;;;;;;7.18;1.00;;;7.00;99.90;;;;;;6189613;23;20472;-86
2021/12/19 02:59:20;;;;;;;5.45;1.20;;;7.00;99.90;;;;;;6188400;23;20112;-87
2021/12/19 03:01:46;;;;;;;11.65;1.58;;;7.00;99.90;;;;;;6214246;23;20059;-87
2021/12/19 03:04:12;;;;;;;5.22;0.70;;;7.10;99.90;;;;;;6216081;23;20126;-86
2021/12/19 03:06:48;;;;;;;3.15;0.73;;;7.10;99.90;;;;;;6208859;23;20154;-86
2021/12/19 03:09:24;;;;;;;3.80;0.90;;;7.10;99.90;;;;;;6212313;23;20020;-87
2021/12/19 03:19:59;;;;;;;10.68;2.60;;;7.00;99.90;;;;;;6153514;23;20363;-86
2021/12/19 03:22:25;;;;;;;11.07;2.65;;;7.00;99.90;;;;;;6213336;23;20020;-86
2021/12/19 03:24:51;;;;;;;11.23;2.47;;;7.00;99.90;;;;;;6187571;23;20078;-86
2021/12/19 03:27:16;;;;;;;9.00;2.38;;;7.10;99.90;;;;;;6187778;23;20027;-85
2021/12/19 03:29:42;;;;;;;10.82;2.60;;;7.10;99.90;;;;;;6187606;23;20099;-86
2021/12/19 03:32:08;;;;;;;14.02;2.25;;;7.10;99.90;;;;;;6164016;23;20020;-85
2021/12/19 03:34:35;;;;;;;9.20;1.85;;;7.10;99.90;;;;;;6216325;23;20022;-86
2021/12/19 03:37:01;;;;;;;16.55;3.83;;;7.10;99.90;;;;;;6187415;23;20064;-85
2021/12/19 03:39:37;;;;;;;11.27;2.17;;;7.10;99.90;;;;;;6187809;23;20096;-85
2021/12/19 03:42:04;;;;;;;14.82;2.53;;;7.20;99.90;;;;;;6187336;23;20055;-85
2021/12/19 03:44:30;;;;;;;12.13;1.88;;;7.20;99.90;;;;;;6187590;23;20326;-86
2021/12/19 03:46:56;;;;;;;16.92;3.40;;;7.20;99.90;;;;;;6186948;23;20024;-86
2021/12/19 03:49:22;;;;;;;19.75;3.60;;;7.20;99.90;;;;;;6188042;23;20462;-86
2021/12/19 03:51:48;;;;;;;20.77;3.88;;;7.20;99.90;;;;;;6162350;23;20119;-86
2021/12/19 03:54:14;;;;;;;19.13;3.42;;;7.20;99.90;;;;;;6160635;23;20017;-86
2021/12/19 03:56:41;;;;;;;15.93;3.28;;;7.20;99.90;;;;;;6187053;23;20033;-86
2021/12/19 03:59:07;;;;;;;22.15;3.67;;;7.20;99.90;;;;;;6188003;23;20055;-86
2021/12/19 04:01:32;;;;;;;16.67;3.30;;;7.20;99.90;;;;;;6187103;23;20029;-86
2021/12/19 04:03:59;;;;;;;20.77;3.55;;;7.20;99.90;;;;;;6187710;23;20475;-86
2021/12/19 04:06:25;;;;;;;13.85;3.95;;;7.20;99.90;;;;;;6188572;23;20025;-85
2021/12/19 04:08:51;;;;;;;33.55;6.95;;;7.20;99.90;;;;;;6214605;23;20032;-87
2021/12/19 04:11:18;;;;;;;19.25;4.90;;;7.20;99.90;;;;;;6187680;23;20020;-86
2021/12/19 04:13:44;;;;;;;9.82;3.30;;;7.30;99.90;;;;;;6163156;23;20024;-87
2021/12/19 04:16:09;;;;;;;19.70;4.47;;;7.30;99.90;;;;;;6187899;23;20032;-86
2021/12/19 04:18:35;;;;;;;17.58;5.80;;;7.30;99.90;;;;;;6187560;23;20051;-87
2021/12/19 04:21:01;;;;;;;23.02;5.03;;;7.30;99.90;;;;;;6214846;23;20021;-86
2021/12/19 04:23:31;;;;;;;15.85;4.13;;;7.30;99.90;;;;;;6189168;23;20059;-85
2021/12/19 04:25:57;;;;;;;20.70;4.78;;;7.30;99.90;;;;;;6218912;23;20025;-86
2021/12/19 04:28:23;;;;;;;21.73;6.15;;;7.30;99.90;;;;;;6193732;23;20025;-86
2021/12/19 04:30:48;;;;;;;17.85;6.05;;;7.30;99.90;;;;;;6190522;23;20025;-86
2021/12/19 04:33:15;;;;;;;22.95;6.47;;;7.20;99.90;;;;;;6215103;23;20024;-87
2021/12/19 04:35:44;;;;;;;26.52;6.93;;;7.30;99.90;;;;;;6163338;23;20095;-86
2021/12/19 04:55:41;;;;;;;18.07;5.63;;;7.30;99.90;;;;;;6189523;23;20028;-86
2021/12/19 05:00:06;;;;;;;17.00;5.22;;;7.30;99.90;;;;;;6189698;23;20487;-87
2021/12/19 05:02:49;;;;;;;;;;;7.30;99.90;;;;;;6189926;23;20048;-85
2021/12/19 05:16:04;;;;;;;14.38;3.70;;;7.30;99.90;;;;;;6188585;23;20051;-87
2021/12/19 05:18:34;;;;;;;16.92;5.05;;;7.30;99.90;;;;;;6191785;23;20059;-86
2021/12/19 05:21:06;;;;;;;11.25;3.20;;;7.30;99.90;;;;;;6215721;23;20028;-85
2021/12/19 05:25:59;;;;;;;21.98;4.28;;;7.30;99.90;;;;;;6188977;23;20024;-86
2021/12/19 05:28:25;;;;;;;16.30;4.70;;;7.30;99.90;;;;;;6188376;23;20048;-86
2021/12/19 05:30:51;;;;;;;28.00;5.88;;;7.30;99.90;;;;;;6188971;23;20033;-86
2021/12/19 05:33:17;;;;;;;21.50;4.18;;;7.30;99.90;;;;;;6189409;23;20021;-86
2021/12/19 05:36:14;;;;;;;21.45;5.80;;;7.30;99.90;;;;;;6189432;23;20095;-86
2021/12/19 05:46:56;;;;;;;17.30;4.25;;;7.30;99.90;;;;;;6188956;23;20021;-86
2021/12/19 05:49:22;;;;;;;20.77;4.60;;;7.30;99.90;;;;;;6214213;23;20105;-86
2021/12/19 05:51:48;;;;;;;22.15;4.00;;;7.30;99.90;;;;;;6188256;23;20060;-87
2021/12/19 05:54:14;;;;;;;25.77;4.47;;;7.40;99.90;;;;;;6188048;23;20031;-85
2021/12/19 05:56:42;;;;;;;19.90;3.47;;;7.30;99.90;;;;;;6215565;23;20032;-86
2021/12/19 05:59:08;;;;;;;16.42;3.38;;;7.30;99.90;;;;;;6188461;23;20016;-87
2021/12/19 06:01:35;;;;;;;19.27;4.68;;;7.30;99.90;;;;;;6214164;23;20032;-86
2021/12/19 06:04:01;;;;;;;14.02;3.53;;;7.30;99.90;;;;;;6189469;23;20020;-86
2021/12/19 06:06:27;;;;;;;13.45;2.67;;;7.30;99.90;;;;;;6214129;23;20032;-86
2021/12/19 06:08:54;;;;;;;19.95;3.83;;;7.30;99.90;;;;;;6215875;23;20503;-86
2021/12/19 06:11:19;;;;;;;23.27;3.58;;;7.30;99.90;;;;;;6215854;23;20025;-85
2021/12/19 06:13:51;;;;;;;16.55;2.70;;;7.30;99.90;;;;;;6190745;23;20021;-86
2021/12/19 06:16:17;;;;;;;18.85;3.92;;;7.30;99.90;;;;;;6223896;23;20341;-86
2021/12/19 06:18:43;;;;;;;10.57;2.28;;;7.30;99.90;;;;;;6192800;23;20084;-86
2021/12/19 06:21:09;;;;;;;13.75;2.63;;;7.30;99.90;;;;;;6188458;23;20024;-86
2021/12/19 06:23:35;;;;;;;16.65;2.67;;;7.30;99.90;;;;;;6187952;23;20340;-86
2021/12/19 06:26:01;;;;;;;19.70;2.83;;;7.30;99.90;;;;;;6185394;23;20063;-86
2021/12/19 06:28:27;;;;;;;23.80;4.72;;;7.30;99.90;;;;;;6188616;23;20047;-86
2021/12/19 06:30:53;;;;;;;20.88;3.25;;;7.30;99.90;;;;;;6215368;23;20095;-86
2021/12/19 06:33:19;;;;;;;16.45;3.15;;;7.30;99.90;;;;;;6213115;23;20052;-86
2021/12/19 06:35:45;;;;;;;18.58;3.80;;;7.30;99.90;;;;;;6187340;23;20060;-86
2021/12/19 06:38:12;;;;;;;18.25;3.33;;;7.30;99.90;;;;;;6214868;23;20024;-86
2021/12/19 06:40:46;;;;;;;22.80;5.07;;;7.30;99.90;;;;;;6188421;23;20027;-86
2021/12/19 06:43:11;;;;;;;18.85;3.67;;;7.30;99.90;;;;;;6184674;23;20021;-86
2021/12/19 06:45:37;;;;;;;31.63;5.13;;;7.30;99.90;;;;;;6187956;23;20032;-85
2021/12/19 06:48:07;;;;;;;25.35;5.10;;;7.30;99.90;;;;;;6163424;23;20021;-85
2021/12/19 06:50:54;;;;;;;16.90;3.60;;;7.40;99.90;;;;;;6126712;23;20076;-86
2021/12/19 06:53:23;;;;;;;18.08;4.95;;;7.40;99.90;;;;;;6128213;23;20611;-86
2021/12/19 06:55:51;;;;;;;25.10;5.00;;;7.40;99.90;;;;;;6103444;23;20037;-86
2021/12/19 06:58:18;;;;;;;24.38;4.15;;;7.40;99.90;;;;;;6079232;23;20104;-86
2021/12/19 07:00:44;;;;;;;25.33;3.95;;;7.40;99.90;;;;;;6127689;23;20056;-86
2021/12/19 07:03:11;;;;;;;25.15;4.72;;;7.50;99.90;;;;;;6127404;23;20025;-86
2021/12/19 07:05:38;;;;;;;17.10;4.65;;;7.50;99.90;;;;;;6127361;23;20366;-87
2021/12/19 07:08:04;;;;;;;19.60;3.28;;;7.50;99.90;;;;;;6128470;23;20020;-87
2021/12/19 07:11:01;;;;;;;18.35;3.70;;;7.50;99.90;;;;;;6131499;23;20052;-87
2021/12/19 07:13:27;;;;;;;17.73;3.05;;;7.50;99.90;;;;;;6085788;23;20027;-87
2021/12/19 07:15:56;;;;;;;15.57;3.33;;;7.50;99.90;;;;;;6090852;23;20042;-86
2021/12/19 07:18:22;;;;;;;13.45;2.47;;;7.50;99.90;;;;;;6040249;23;20026;-87
2021/12/19 07:20:48;;;;;;;19.63;4.40;;;7.50;99.90;;;;;;6075066;23;20025;-86
2021/12/19 07:23:18;;;;;;;15.77;3.72;;;7.50;99.90;;;;;;6097312;23;20477;-86
2021/12/19 07:25:47;;;;;;;19.98;3.90;;;7.50;99.90;;;;;;6147229;23;20092;-86
2021/12/19 07:28:13;;;;;;;22.75;3.70;;;7.50;99.90;;;;;;6122743;23;20057;-85
2021/12/19 07:30:40;;;;;;;19.27;3.75;;;7.50;99.90;;;;;;6122727;23;20026;-85
2021/12/19 07:33:08;;;;;;;17.75;3.58;;;7.50;99.90;;;;;;6098207;23;20337;-86
2021/12/19 07:35:37;;;;;;;15.18;3.00;;;7.50;99.90;;;;;;6097714;23;20244;-85
2021/12/19 07:38:05;;;;;;;18.20;3.25;;;7.50;99.90;;;;;;6097955;23;20525;-86
2021/12/19 07:40:39;;;;;;;17.75;3.85;;;7.50;99.90;;;;;;6098229;23;20040;-86
2021/12/19 07:43:10;;;;;;;16.20;3.92;;;7.50;99.90;;;;;;6097667;23;20105;-85
2021/12/19 07:45:38;;;;;;;16.02;3.42;;;7.50;99.90;;;;;;6097923;23;20026;-86
2021/12/19 07:48:06;;;;;;;18.08;3.45;;;7.50;99.90;;;;;;6098030;23;20359;-86
2021/12/19 07:50:32;;;;;;;10.93;2.97;;;7.50;99.90;;;;;;6098183;23;20022;-86
2021/12/19 07:53:16;;;;;;;14.70;2.60;;;7.50;99.90;;;;;;6097483;23;20086;-86
2021/12/19 07:55:49;;;;;;;12.77;2.78;;;7.50;99.90;;;;;;6098446;23;20041;-86
2021/12/19 07:58:15;;;;;;;17.50;2.85;;;7.50;99.90;;;;;;6075626;23;20026;-84
2021/12/19 08:00:41;;;;;;;11.02;3.10;;;7.50;99.90;;;;;;6127146;23;20036;-85
2021/12/19 08:03:06;;;;;;;23.98;3.53;;;7.50;99.90;;;;;;6125708;23;20018;-85
2021/12/19 08:05:32;;;;;;;19.10;4.57;;;7.50;99.90;;;;;;6098382;23;20029;-85
2021/12/19 08:08:03;;;;;;;9.60;2.13;;;7.50;99.90;;;;;;6122901;23;20048;-85
2021/12/19 08:12:59;;;;;;;17.05;2.60;;;7.60;99.90;;;;;;6097916;23;20544;-86
2021/12/19 08:15:25;;;;;;;16.77;2.50;;;7.60;99.90;;;;;;6104032;23;20076;-87
2021/12/19 08:17:50;;;;;;;14.15;3.35;;;7.60;99.90;;;;;;6188063;23;20082;-87
2021/12/19 08:20:17;;;;;;;19.92;3.17;;;7.50;99.90;;;;;;6187610;23;20104;-87
2021/12/19 08:22:44;;;;;;;16.13;3.42;;;7.50;99.90;;;;;;6214857;23;20099;-86
2021/12/19 08:25:10;;;;;;;16.23;3.63;;;7.50;99.90;;;;;;6212604;23;20031;-86
2021/12/19 08:27:37;;;;;;;15.77;3.38;;;7.50;99.90;;;;;;6187677;23;20022;-86
2021/12/19 08:30:05;;;;;;;16.77;3.15;;;7.50;99.90;;;;;;6163514;23;20028;-87
2021/12/19 08:32:31;;;;;;;27.13;4.40;;;7.60;99.90;;;;;;6214515;23;20025;-85
2021/12/19 08:34:57;;;;;;;21.52;4.35;;;7.60;99.90;;;;;;6188440;23;20356;-85
2021/12/19 08:37:23;;;;;;;18.40;3.42;;;7.60;99.90;;;;;;6187580;23;20024;-86
2021/12/19 08:39:49;;;;;;;20.85;2.85;;;7.60;99.90;;;;;;6187786;23;20483;-86
2021/12/19 08:42:15;;;;;;;16.30;3.75;;;7.60;99.90;;;;;;6188060;23;20024;-87
2021/12/19 08:44:41;;;;;;;12.77;2.97;;;7.60;99.90;;;;;;6189028;23;20076;-87
2021/12/19 08:47:08;;;;;;;12.32;2.97;;;7.60;99.90;;;;;;6193752;23;20032;-87
2021/12/19 08:49:40;;;;;;;19.65;3.53;;;7.60;99.90;;;;;;6168018;23;20021;-86
2021/12/19 08:52:10;;;;;;;25.20;3.88;;;7.60;99.90;;;;;;6187211;23;20495;-86
2021/12/19 08:54:36;;;;;;;14.63;3.28;;;7.70;99.90;;;;;;6187053;23;20025;-86
2021/12/19 08:57:02;;;;;;;17.02;3.60;;;7.60;99.90;;;;;;6187271;23;20423;-86
2021/12/19 08:59:29;;;;;;;14.52;2.88;;;7.70;99.90;;;;;;6186481;23;20353;-87
2021/12/19 09:02:36;;;;;;;26.45;5.43;;;7.70;99.90;;;;;;6186971;23;20051;-87
2021/12/19 09:05:02;;;;;;;20.92;3.45;;;7.70;99.90;;;;;;6213191;23;20025;-86
2021/12/19 09:07:28;;;;;;;20.23;3.97;;;7.70;99.90;;;;;;6214699;23;20399;-85
2021/12/19 09:09:54;;;;;;;22.65;4.82;;;7.80;99.90;;;;;;6187490;23;20099;-85
2021/12/19 09:12:20;;;;;;;28.38;5.72;;;7.80;99.90;;;;;;6186799;23;20103;-86
2021/12/19 09:14:45;;;;;;;33.15;4.40;;;7.80;99.90;;;;;;6187451;23;20453;-85
2021/12/19 09:17:11;;;;;;;21.80;3.47;;;7.80;99.90;;;;;;6214754;23;20035;-86
2021/12/19 09:19:37;;;;;;;29.67;5.32;;;7.80;99.90;;;;;;6187509;23;20099;-84
2021/12/19 09:22:03;;;;;;;38.97;5.75;;;7.80;99.90;;;;;;6214703;23;20099;-86
2021/12/19 09:24:29;;;;;;;19.38;3.67;;;7.80;99.90;;;;;;6214083;23;20449;-87
2021/12/19 09:26:55;;;;;;;27.20;4.80;;;7.80;99.90;;;;;;6212460;23;20038;-86
2021/12/19 09:29:21;;;;;;;31.27;5.30;;;7.80;99.90;;;;;;6216067;23;20028;-86
2021/12/19 09:31:49;;;;;;;19.23;4.22;;;7.80;99.90;;;;;;6165084;23;20025;-86
2021/12/19 09:34:15;;;;;;;21.27;4.40;;;7.80;99.90;;;;;;6193260;23;20024;-87
2021/12/19 09:36:41;;;;;;;18.65;3.67;;;7.80;99.90;;;;;;6193279;23;20403;-87
2021/12/19 09:39:07;;;;;;;17.23;3.50;;;7.90;99.90;;;;;;6192047;23;20103;-85
2021/12/19 09:41:42;;;;;;;21.92;4.25;;;7.80;99.90;;;;;;6188140;23;20074;-85
2021/12/19 09:44:11;;;;;;;19.88;3.55;;;7.80;99.90;;;;;;6188934;23;20349;-86
2021/12/19 09:46:39;;;;;;;25.58;3.85;;;7.80;99.90;;;;;;6188451;23;20440;-86
2021/12/19 09:49:07;;;;;;;13.75;3.10;;;7.80;99.90;;;;;;6188458;23;20326;-86
2021/12/19 09:51:35;;;;;;;15.90;3.08;;;7.80;99.90;;;;;;6188716;23;20024;-86
2021/12/19 09:54:01;;;;;;;15.20;3.80;;;7.80;99.90;;;;;;6164045;23;20094;-85
2021/12/19 09:56:27;;;;;;;21.58;3.42;;;7.80;99.90;;;;;;6188597;23;20056;-86
2021/12/19 09:58:53;;;;;;;16.17;3.28;;;7.80;99.90;;;;;;6164353;23;20024;-86
2021/12/19 10:01:19;;;;;;;17.55;3.50;;;7.80;99.90;;;;;;6162730;23;20360;-86
2021/12/19 10:03:45;;;;;;;16.58;3.00;;;7.80;99.90;;;;;;6162408;23;20028;-86
2021/12/19 10:06:24;;;;;;;19.35;3.33;;;7.80;99.90;;;;;;6188556;23;20025;-86
2021/12/19 10:09:15;;;;;;;23.23;3.63;;;7.80;99.90;;;;;;6188030;23;20021;-86
2021/12/19 10:14:29;;;;;;;17.33;3.33;;;7.90;99.90;;;;;;6188350;23;20024;-85
2021/12/19 10:17:00;;;;;;;19.52;3.15;;;7.80;99.90;;;;;;6163754;23;20028;-87
2021/12/19 10:20:05;;;;;;;22.80;3.67;;;7.90;99.90;;;;;;6215069;23;20130;-86
2021/12/19 10:22:48;;;;;;;23.05;4.28;;;7.80;99.90;;;;;;6157157;23;20135;-85
2021/12/19 10:25:24;;;;;;;14.48;2.90;;;7.90;99.90;;;;;;6182514;23;20054;-87
2021/12/19 10:28:04;;;;;;;14.02;3.03;;;7.90;99.90;;;;;;6077860;23;20032;-86
2021/12/19 10:30:57;;;;;;;15.85;3.28;;;7.90;99.90;;;;;;6102146;23;20026;-86
2021/12/19 10:33:32;;;;;;;22.77;3.42;;;8.00;99.90;;;;;;6082096;23;20361;-87
2021/12/19 10:36:02;;;;;;;18.33;4.57;;;7.90;99.90;;;;;;6077569;23;20514;-87
2021/12/19 10:38:34;;;;;;;19.80;3.33;;;7.90;99.90;;;;;;6103616;23;20490;-87
2021/12/19 10:41:13;;;;;;;24.00;4.20;;;8.00;99.90;;;;;;6102290;23;20022;-86
2021/12/19 10:43:51;;;;;;;23.95;3.55;;;8.00;99.90;;;;;;6105539;23;20442;-86
2021/12/19 10:46:29;;;;;;;23.75;3.97;;;8.00;99.90;;;;;;6127922;23;20017;-86
2021/12/19 10:48:56;;;;;;;20.00;4.28;;;8.00;99.90;;;;;;6144371;23;20026;-85
2021/12/19 10:51:22;;;;;;;29.50;5.15;;;8.00;99.90;;;;;;6127243;23;20025;-84
2021/12/19 10:53:54;;;;;;;23.20;3.90;;;8.00;99.90;;;;;;6108420;23;20434;-85
2021/12/19 10:56:21;;;;;;;26.05;5.60;;;8.00;99.90;;;;;;6147446;23;20034;-85
2021/12/19 10:58:54;;;;;;;26.95;4.68;;;8.10;99.90;;;;;;6175837;23;20021;-87
2021/12/19 11:01:22;;;;;;;19.75;4.47;;;8.10;99.90;;;;;;6158356;23;20528;-86
2021/12/19 11:04:13;;;;;;;27.45;3.92;;;8.10;99.90;;;;;;6182540;23;20476;-86
2021/12/19 11:07:02;;;;;;;36.58;6.10;;;8.10;99.90;;;;;;6158388;23;20521;-87
2021/12/19 11:09:37;;;;;;;22.80;4.28;;;8.20;99.90;;;;;;6181332;23;20112;-86
2021/12/19 11:12:23;;;;;;;23.42;4.72;;;8.20;99.90;;;;;;6158691;23;20021;-86
2021/12/19 11:14:49;;;;;;;21.02;4.22;;;8.20;99.90;;;;;;6159748;23;20021;-87
2021/12/19 11:17:18;;;;;;;19.38;3.42;;;8.20;99.90;;;;;;6184516;23;20640;-86
2021/12/19 11:19:45;;;;;;;26.02;5.57;;;8.20;99.90;;;;;;6158446;23;20059;-86
2021/12/19 11:22:12;;;;;;;15.98;3.42;;;8.20;99.90;;;;;;6185386;23;20040;-87
2021/12/19 11:24:43;;;;;;;29.13;5.57;;;8.30;99.90;;;;;;6184829;23;20017;-87
2021/12/19 11:27:18;;;;;;;18.52;3.75;;;8.30;99.90;;;;;;6158277;23;20028;-86
2021/12/19 11:29:45;;;;;;;26.13;4.45;;;8.30;99.90;;;;;;6158288;23;20029;-86
2021/12/19 11:32:18;;;;;;;28.13;5.45;;;8.30;99.90;;;;;;6157967;23;20226;-86
2021/12/19 11:34:43;;;;;;;28.67;4.90;;;8.30;99.90;;;;;;6184673;23;20021;-86
2021/12/19 11:37:18;;;;;;;25.88;5.00;;;8.30;99.90;;;;;;6181472;23;20075;-87
2021/12/19 11:39:51;;;;;;;27.35;6.40;;;8.30;99.90;;;;;;6157991;23;20028;-87
2021/12/19 11:42:28;;;;;;;36.55;5.93;;;8.30;99.90;;;;;;6158439;23;20024;-88
2021/12/19 11:47:52;;;;;;;17.95;3.80;;;8.30;99.90;;;;;;6187140;23;20476;-87
2021/12/19 11:50:32;;;;;;;25.00;4.82;;;8.40;99.90;;;;;;6213512;23;20104;-87
2021/12/19 11:53:11;;;;;;;22.92;3.55;;;8.40;99.90;;;;;;6151369;23;20013;-87
2021/12/19 11:55:40;;;;;;;20.98;3.35;;;8.40;99.90;;;;;;6151448;23;20108;-87
2021/12/19 11:58:08;;;;;;;20.35;5.45;;;8.40;99.90;;;;;;6127281;23;20088;-86
2021/12/19 12:00:43;;;;;;;20.17;3.53;;;8.40;99.90;;;;;;6126785;23;20032;-86
2021/12/19 12:03:29;;;;;;;18.92;3.72;;;8.40;99.90;;;;;;6151656;23;20427;-86
2021/12/19 12:05:58;;;;;;;22.10;3.90;;;8.40;99.90;;;;;;6126547;23;20072;-86
2021/12/19 12:08:30;;;;;;;21.05;5.25;;;8.40;99.90;;;;;;6151974;23;20021;-87
2021/12/19 12:10:57;;;;;;;16.42;4.03;;;8.40;99.90;;;;;;6128258;23;20520;-86
2021/12/19 12:13:32;;;;;;;19.70;3.50;;;8.40;99.90;;;;;;6147653;23;20072;-87
2021/12/19 12:16:32;;;;;;;24.13;2.92;;;8.40;99.90;;;;;;6151642;23;20026;-87
2021/12/19 12:19:00;;;;;;;16.30;3.97;;;8.40;99.90;;;;;;6113862;23;20022;-87
2021/12/19 12:21:34;;;;;;;21.10;4.07;;;8.40;99.90;;;;;;6152049;23;20557;-87
2021/12/19 12:24:03;;;;;;;22.73;3.78;;;8.40;99.90;;;;;;6127667;23;20021;-87
2021/12/19 12:26:36;;;;;;;22.58;3.60;;;8.40;99.90;;;;;;6209832;23;20050;-87
2021/12/19 12:29:02;;;;;;;24.80;4.07;;;8.40;99.90;;;;;;6187805;23;20571;-87
2021/12/19 12:31:28;;;;;;;21.67;4.22;;;8.40;99.90;;;;;;6187798;23;20082;-87
2021/12/19 12:33:56;;;;;;;20.73;4.38;;;8.40;99.90;;;;;;6187203;23;20016;-86
2021/12/19 12:36:22;;;;;;;28.40;6.50;;;8.40;99.90;;;;;;6187774;23;20024;-87
2021/12/19 12:38:51;;;;;;;25.38;5.10;;;8.40;99.90;;;;;;6187689;23;20017;-87
2021/12/19 12:44:07;;;;;;;22.83;4.53;;;8.40;99.90;;;;;;6187910;23;20024;-86
2021/12/19 12:46:34;;;;;;;24.45;4.20;;;8.40;99.90;;;;;;6215744;23;20024;-87
2021/12/19 12:49:34;;;;;;;21.25;3.28;;;8.40;99.90;;;;;;6218626;23;20318;-87
2021/12/19 12:52:00;;;;;;;25.60;3.92;;;8.40;99.90;;;;;;6203971;23;20024;-87
2021/12/19 12:54:33;;;;;;;28.67;5.13;;;8.40;99.90;;;;;;6187808;23;20032;-87
2021/12/19 12:57:04;;;;;;;23.40;4.88;;;8.40;99.90;;;;;;6188014;23;20134;-88
2021/12/19 12:59:38;;;;;;;29.95;5.72;;;8.40;99.90;;;;;;6187574;23;20021;-88
2021/12/19 13:02:31;;;;;;;31.27;4.82;;;8.40;99.90;;;;;;6188409;23;20364;-88
2021/12/19 13:05:00;;;;;;;27.02;3.72;;;8.40;99.90;;;;;;6164404;23;20456;-86
2021/12/19 13:07:26;;;;;;;26.83;4.53;;;8.40;99.90;;;;;;6189126;23;20091;-86
2021/12/19 13:09:55;;;;;;;29.08;5.60;;;8.40;99.90;;;;;;6214618;23;20460;-86
2021/12/19 13:12:32;;;;;;;30.73;4.32;;;8.40;99.90;;;;;;6148187;23;20389;-86
2021/12/19 13:15:15;;;;;;;25.27;4.82;;;8.40;99.90;;;;;;6124197;23;20026;-87
2021/12/19 13:17:48;;;;;;;26.48;3.67;;;8.40;99.90;;;;;;6075285;23;20030;-87
2021/12/19 13:20:20;;;;;;;29.33;4.38;;;8.40;99.90;;;;;;6124017;23;20026;-86
2021/12/19 13:22:51;;;;;;;18.67;2.92;;;8.40;99.90;;;;;;6098532;23;20037;-86
2021/12/19 13:25:29;;;;;;;12.07;2.72;;;8.40;99.90;;;;;;6123515;23;20453;-86
2021/12/19 13:28:05;;;;;;;8.55;2.20;;;8.30;99.90;;;;;;6099032;23;20026;-85
2021/12/19 13:30:54;;;;;;;10.25;2.53;;;8.30;99.90;;;;;;6123619;23;20033;-87
2021/12/19 13:33:35;;;;;;;8.68;1.90;;;8.30;99.90;;;;;;6098989;23;20642;-87
2021/12/19 13:36:01;;;;;;;15.15;2.30;;;8.30;99.90;;;;;;6123700;23;20413;-86
2021/12/19 13:38:28;;;;;;;15.02;2.38;;;8.30;99.90;;;;;;6099128;23;20026;-87
2021/12/19 13:41:02;;;;;;;15.23;2.67;;;8.30;99.90;;;;;;6099361;23;20096;-86
2021/12/19 13:43:30;;;;;;;14.00;2.00;;;8.20;99.90;;;;;;6173881;23;20025;-87
2021/12/19 13:46:04;;;;;;;12.55;2.58;;;8.20;99.90;;;;;;6215345;23;20503;-87
2021/12/19 13:48:39;;;;;;;21.80;3.55;;;8.20;99.90;;;;;;6189152;23;20024;-88
2021/12/19 13:51:14;;;;;;;16.88;2.10;;;8.20;99.90;;;;;;6189194;23;20334;-86
2021/12/19 13:53:52;;;;;;;10.85;2.65;;;8.30;99.90;;;;;;6164185;23;20023;-86
2021/12/19 13:56:26;;;;;;;12.65;2.97;;;8.30;99.90;;;;;;6215576;23;20052;-87
2021/12/19 13:58:59;;;;;;;18.17;3.40;;;8.20;99.90;;;;;;6163133;23;20373;-87
2021/12/19 14:01:36;;;;;;;17.63;2.42;;;8.20;99.90;;;;;;6188575;23;20472;-87
2021/12/19 14:04:19;;;;;;;15.77;2.28;;;8.20;99.90;;;;;;6188875;23;20157;-86
2021/12/19 14:06:46;;;;;;;10.45;2.70;;;8.20;99.90;;;;;;6189004;23;20043;-87
2021/12/19 14:09:17;;;;;;;15.75;3.70;;;8.20;99.90;;;;;;6215565;23;20032;-87
2021/12/19 14:11:48;;;;;;;25.63;3.10;;;8.20;99.90;;;;;;6188813;23;20021;-87
2021/12/19 14:16:59;;;;;;;12.52;2.03;;;8.20;99.90;;;;;;6214142;23;20040;-86
2021/12/19 14:19:26;;;;;;;17.57;3.83;;;8.20;99.90;;;;;;6188792;23;20093;-87
2021/12/19 14:22:15;;;;;;;14.70;2.75;;;8.20;99.90;;;;;;6188986;23;20268;-87
2021/12/19 14:24:46;;;;;;;18.65;3.35;;;8.20;99.90;;;;;;6139510;23;20024;-87